createdAt,value
2019-05-10T00:03:06.216Z,62.71
2019-05-10T00:08:22.056Z,62.08
2019-05-10T00:13:26.849Z,62.70
2019-05-10T00:18:23.884Z,62.95
2019-05-10T00:23:22.729Z,62.75
2019-05-10T00:28:19.798Z,62.64
2019-05-10T00:33:16.871Z,62.55
2019-05-10T00:38:13.833Z,62.89
2019-05-10T00:43:10.801Z,62.87
2019-05-10T00:48:07.735Z,63.26
2019-05-10T00:53:05.085Z,62.96
2019-05-10T00:58:02.017Z,62.71
2019-05-10T01:02:59.020Z,62.98
2019-05-10T01:07:56.049Z,62.73
2019-05-10T01:12:53.045Z,62.63
2019-05-10T01:17:50.111Z,62.54
2019-05-10T01:22:47.064Z,62.88
2019-05-10T01:27:44.120Z,63.02
2019-05-10T01:32:41.645Z,62.92
2019-05-10T01:37:38.679Z,62.98
2019-05-10T01:42:35.639Z,61.53
2019-05-10T01:47:32.585Z,62.90
2019-05-10T01:52:29.686Z,62.64
2019-05-10T01:57:26.649Z,61.50
2019-05-10T02:02:23.721Z,62.94
2019-05-10T02:07:20.674Z,63.09
2019-05-10T02:12:19.832Z,62.79
2019-05-10T02:17:16.787Z,63.11
2019-05-10T02:22:15.906Z,63.24
2019-05-10T02:27:12.988Z,63.11
2019-05-10T02:32:10.512Z,62.83
2019-05-10T02:37:07.473Z,62.72
2019-05-10T02:42:04.678Z,62.93
2019-05-10T02:47:01.717Z,62.94
2019-05-10T02:51:58.803Z,62.96
2019-05-10T02:56:56.260Z,63.34
2019-05-10T03:01:55.747Z,63.26
2019-05-10T03:07:00.662Z,63.16
2019-05-10T03:12:12.342Z,63.11
2019-05-10T03:17:12.591Z,63.05
2019-05-10T03:22:09.638Z,62.98
2019-05-10T03:27:06.767Z,63.61
2019-05-10T03:32:03.858Z,63.03
2019-05-10T03:37:00.955Z,63.27
2019-05-10T03:41:58.008Z,63.24
2019-05-10T03:46:55.043Z,63.09
2019-05-10T03:51:54.043Z,62.97
2019-05-10T03:57:09.241Z,62.46
2019-05-10T04:01:50.034Z,62.85
2019-05-10T04:06:47.157Z,62.70
2019-05-10T04:11:46.079Z,62.79
2019-05-10T04:16:44.423Z,62.41
2019-05-10T04:21:41.644Z,61.75
2019-05-10T04:26:38.739Z,61.98
2019-05-10T04:31:36.299Z,61.93
2019-05-10T04:36:35.148Z,61.52
2019-05-10T04:41:32.164Z,62.48
2019-05-10T04:46:31.134Z,62.63
2019-05-10T04:51:28.174Z,62.45
2019-05-10T04:56:25.209Z,62.24
2019-05-10T05:01:22.299Z,62.46
2019-05-10T05:06:21.313Z,62.01
2019-05-10T05:11:19.924Z,61.35
2019-05-10T05:16:16.991Z,61.71
2019-05-10T05:21:13.949Z,61.57
2019-05-10T05:26:10.945Z,61.92
2019-05-10T05:31:07.937Z,61.95
2019-05-10T05:36:05.939Z,60.58
2019-05-10T05:41:02.980Z,60.76
2019-05-10T05:46:14.004Z,60.20
2019-05-10T05:51:09.543Z,59.96
2019-05-10T05:56:12.680Z,59.40
2019-05-10T06:01:05.931Z,58.66
2019-05-10T06:06:15.262Z,60.32
2019-05-10T06:11:04.688Z,57.75
2019-05-10T06:16:06.250Z,59.05
2019-05-10T06:21:00.758Z,58.40
2019-05-10T06:26:00.673Z,55.85
2019-05-10T06:31:04.982Z,56.80
2019-05-10T06:36:02.095Z,56.20
2019-05-10T06:41:01.322Z,55.98
2019-05-10T06:45:58.496Z,54.67
2019-05-10T06:50:55.514Z,55.75
2019-05-10T06:55:56.171Z,55.62
2019-05-10T07:00:53.138Z,56.64
2019-05-10T07:05:53.927Z,56.21
2019-05-10T07:10:52.774Z,54.90
2019-05-10T07:15:58.259Z,54.95
2019-05-10T07:20:55.307Z,56.53
2019-05-10T07:25:54.208Z,56.09
2019-05-10T07:30:51.289Z,53.77
2019-05-10T07:35:48.736Z,53.57
2019-05-10T07:40:47.728Z,52.68
2019-05-10T07:45:46.917Z,52.70
2019-05-10T07:50:49.617Z,51.29
2019-05-10T07:55:43.027Z,51.43
2019-05-10T08:00:48.096Z,53.09
2019-05-10T08:05:46.171Z,53.55
2019-05-10T08:10:45.648Z,54.21
2019-05-10T08:15:44.085Z,53.53
2019-05-10T08:20:53.929Z,53.21
2019-05-10T08:25:47.360Z,53.64
2019-05-10T08:30:51.854Z,55.47
2019-05-10T08:35:52.461Z,56.12
2019-05-10T08:40:48.654Z,56.39
2019-05-10T08:45:49.426Z,57.35
2019-05-10T08:50:57.581Z,57.03
2019-05-10T08:55:58.341Z,56.87
2019-05-10T09:01:16.448Z,55.47
2019-05-10T09:06:10.777Z,56.72
2019-05-10T09:11:06.439Z,55.87
2019-05-10T09:16:03.240Z,55.76
2019-05-10T09:21:10.572Z,54.99
2019-05-10T09:26:10.179Z,54.49
2019-05-10T09:31:18.608Z,55.99
2019-05-10T09:36:09.517Z,54.67
2019-05-10T09:41:09.204Z,53.59
2019-05-10T09:46:14.870Z,54.55
2019-05-10T09:51:13.761Z,54.00
2019-05-10T09:56:17.322Z,52.13
2019-05-10T10:01:20.704Z,53.56
2019-05-10T10:06:18.042Z,52.02
2019-05-10T10:11:18.720Z,52.50
2019-05-10T10:16:20.710Z,52.28
2019-05-10T10:21:30.513Z,53.63
2019-05-10T10:26:22.322Z,53.81
2019-05-10T10:31:29.564Z,53.30
2019-05-10T10:36:20.731Z,54.75
2019-05-10T10:41:25.906Z,52.49
2019-05-10T10:46:19.745Z,53.13
2019-05-10T10:51:18.027Z,52.24
2019-05-10T10:56:19.019Z,52.71
2019-05-10T11:01:21.379Z,51.79
2019-05-10T11:06:15.516Z,52.18
2019-05-10T11:11:12.657Z,51.02
2019-05-10T11:16:15.469Z,50.33
2019-05-10T11:21:08.602Z,50.64
2019-05-10T11:26:10.872Z,48.84
2019-05-10T11:31:11.391Z,44.94
2019-05-10T11:36:10.950Z,43.60
2019-05-10T11:41:13.639Z,47.72
2019-05-10T11:46:11.722Z,46.76
2019-05-10T11:51:15.886Z,46.43
2019-05-10T11:56:26.799Z,42.04
2019-05-10T12:01:22.252Z,42.55
2019-05-10T12:06:22.646Z,42.17
2019-05-10T12:16:21.305Z,44.09
2019-05-10T12:21:17.475Z,40.74
2019-05-10T12:26:49.398Z,43.38
2019-05-10T12:27:12.667Z,42.04
2019-05-10T12:31:17.022Z,40.74
2019-05-10T12:36:25.495Z,39.75
2019-05-10T12:41:16.541Z,36.96
2019-05-10T12:46:13.682Z,36.66
2019-05-10T12:51:15.197Z,36.21
2019-05-10T12:56:10.084Z,34.88
2019-05-10T13:01:08.803Z,37.77
2019-05-10T13:06:10.360Z,34.82
2019-05-10T13:11:07.538Z,32.86
2019-05-10T13:16:09.497Z,33.68
2019-05-10T13:21:13.582Z,33.82
2019-05-10T13:26:12.361Z,31.10
2019-05-10T13:31:15.227Z,33.47
2019-05-10T13:36:12.293Z,32.87
2019-05-10T13:41:17.987Z,35.86
2019-05-10T13:46:17.672Z,32.53
2019-05-10T13:51:16.118Z,32.95
2019-05-10T13:56:15.130Z,33.15
2019-05-10T14:01:14.849Z,32.17
2019-05-10T14:06:12.135Z,34.86
2019-05-10T14:11:09.233Z,32.37
2019-05-10T14:16:06.469Z,34.26
2019-05-10T14:21:03.535Z,30.81
2019-05-10T14:26:00.605Z,33.34
2019-05-10T14:30:58.929Z,32.82
2019-05-10T14:36:00.870Z,32.41
2019-05-10T14:40:55.415Z,32.53
2019-05-10T14:45:52.412Z,31.91
2019-05-10T14:50:49.414Z,32.99
2019-05-10T14:55:49.347Z,34.32
2019-05-10T15:00:48.276Z,32.33
2019-05-10T15:05:48.953Z,35.13
2019-05-10T15:10:45.112Z,35.28
2019-05-10T15:15:42.828Z,34.82
2019-05-10T15:20:41.741Z,34.63
2019-05-10T15:25:55.702Z,34.12
2019-05-10T15:30:45.764Z,37.52
2019-05-10T15:35:45.832Z,37.11
2019-05-10T15:40:44.561Z,36.66
2019-05-10T15:45:39.066Z,37.52
2019-05-10T15:50:38.683Z,38.70
2019-05-10T15:55:35.105Z,38.76
2019-05-10T16:00:39.368Z,38.85
2019-05-10T16:05:43.101Z,40.29
2019-05-10T16:10:38.812Z,40.28
2019-05-10T16:15:32.924Z,40.97
2019-05-10T16:20:31.779Z,43.15
2019-05-10T16:25:32.839Z,45.35
2019-05-10T16:30:28.011Z,47.27
2019-05-10T16:35:38.079Z,51.14
2019-05-10T16:40:24.089Z,52.26
2019-05-10T16:45:23.146Z,52.92
2019-05-10T16:50:25.857Z,52.24
2019-05-10T16:55:21.383Z,51.69
2019-05-10T17:00:18.641Z,52.12
2019-05-10T17:05:17.297Z,52.32
2019-05-10T17:10:14.615Z,54.03
2019-05-10T17:15:14.062Z,54.50
2019-05-10T17:20:15.775Z,55.45
2019-05-10T17:25:13.595Z,56.12
2019-05-10T17:30:14.678Z,56.24
2019-05-10T17:35:12.120Z,56.90
2019-05-10T17:40:12.085Z,56.55
2019-05-10T17:45:08.993Z,56.88
2019-05-10T17:50:06.971Z,57.19
2019-05-10T17:55:10.790Z,58.02
2019-05-10T18:00:06.871Z,58.04
2019-05-10T18:05:08.317Z,58.49
2019-05-10T18:10:06.624Z,58.15
2019-05-10T18:15:06.374Z,58.07
2019-05-10T18:20:05.418Z,57.82
2019-05-10T18:25:02.919Z,58.76
2019-05-10T18:30:00.134Z,58.37
2019-05-10T18:34:57.279Z,60.04
2019-05-10T18:39:54.773Z,61.00
2019-05-10T18:44:54.121Z,61.01
2019-05-10T18:49:51.272Z,60.75
2019-05-10T18:54:48.331Z,61.11
2019-05-10T18:59:47.092Z,61.07
2019-05-10T19:04:45.764Z,61.34
2019-05-10T19:09:43.522Z,61.42
2019-05-10T19:14:40.623Z,62.23
2019-05-10T19:19:42.140Z,62.60
2019-05-10T19:24:39.885Z,62.76
2019-05-10T19:29:38.843Z,63.22
2019-05-10T19:34:38.530Z,62.85
2019-05-10T19:39:37.239Z,62.62
2019-05-10T19:44:39.746Z,63.08
2019-05-10T19:49:33.925Z,62.44
2019-05-10T19:54:31.139Z,63.23
2019-05-10T19:59:28.506Z,62.37
2019-05-10T20:04:25.624Z,61.35
2019-05-10T20:09:23.247Z,63.08
2019-05-10T20:14:20.368Z,63.11
2019-05-10T20:19:17.439Z,62.81
2019-05-10T20:24:14.424Z,61.79
2019-05-10T20:29:13.543Z,62.01
2019-05-10T20:34:10.923Z,61.01
2019-05-10T20:39:08.009Z,62.38
2019-05-10T20:44:04.999Z,62.33
2019-05-10T20:49:02.605Z,62.41
2019-05-10T20:54:00.741Z,61.93
2019-05-10T20:58:57.863Z,63.29
2019-05-10T21:03:55.911Z,61.50
2019-05-10T21:08:54.914Z,62.10
2019-05-10T21:13:52.111Z,61.63
2019-05-10T21:18:51.506Z,62.96
2019-05-10T21:23:48.810Z,63.05
2019-05-10T21:28:48.919Z,62.06
2019-05-10T21:33:50.130Z,61.81
2019-05-10T21:38:47.191Z,62.46
2019-05-10T21:43:44.632Z,62.44
2019-05-10T21:48:41.843Z,62.73
2019-05-10T21:53:38.880Z,62.63
2019-05-10T21:58:36.047Z,62.96
2019-05-10T22:03:33.191Z,63.86
2019-05-10T22:08:30.300Z,63.55
2019-05-10T22:13:29.255Z,63.40
2019-05-10T22:18:26.359Z,63.64
2019-05-10T22:23:25.851Z,62.87
2019-05-10T22:28:23.045Z,63.50
2019-05-10T22:33:20.062Z,63.33
2019-05-10T22:38:17.118Z,63.37
2019-05-10T22:43:14.192Z,63.04
2019-05-10T22:48:13.742Z,63.47
2019-05-10T22:53:10.765Z,63.30
2019-05-10T22:58:08.265Z,63.38
2019-05-10T23:03:05.351Z,62.89
2019-05-10T23:08:02.377Z,62.90
2019-05-10T23:12:59.478Z,62.83
2019-05-10T23:17:56.697Z,62.81
2019-05-10T23:22:53.779Z,62.03
2019-05-10T23:27:50.878Z,61.29
2019-05-10T23:32:47.957Z,62.30
2019-05-10T23:37:46.866Z,61.46
2019-05-10T23:42:44.793Z,61.50
2019-05-10T23:47:41.852Z,61.57
2019-05-10T23:52:39.020Z,61.51
2019-05-10T23:57:36.593Z,61.00
